createdAt,value
2022-08-08T00:00:59.660Z,19.42
2022-08-08T00:03:31.590Z,19.38
2022-08-08T00:06:34.722Z,19.34
2022-08-08T00:09:43.515Z,19.20
2022-08-08T00:12:14.823Z,19.08
2022-08-08T00:15:24.188Z,19.09
2022-08-08T00:18:13.564Z,19.00
2022-08-08T00:20:56.626Z,19.05
2022-08-08T00:23:47.646Z,18.99
2022-08-08T00:26:29.466Z,18.95
2022-08-08T00:29:45.672Z,18.86
2022-08-08T00:32:35.474Z,18.86
2022-08-08T00:35:21.371Z,18.78
2022-08-08T00:38:01.204Z,18.70
2022-08-08T00:41:09.933Z,18.68
2022-08-08T00:43:24.658Z,18.67
2022-08-08T00:46:17.959Z,18.69
2022-08-08T00:49:22.821Z,18.79
2022-08-08T00:52:29.082Z,18.81
2022-08-08T00:55:35.936Z,18.80
2022-08-08T00:58:31.936Z,18.83
2022-08-08T01:01:19.632Z,18.75
2022-08-08T01:04:29.880Z,18.76
2022-08-08T01:07:11.624Z,18.77
2022-08-08T01:09:53.473Z,18.79
2022-08-08T01:12:29.792Z,18.72
2022-08-08T01:15:44.370Z,18.67
2022-08-08T01:18:52.457Z,18.59
2022-08-08T01:22:09.893Z,18.60
2022-08-08T01:24:57.246Z,18.58
2022-08-08T01:27:59.312Z,18.55
2022-08-08T01:30:26.878Z,18.57
2022-08-08T01:33:23.930Z,18.56
2022-08-08T01:36:19.523Z,18.53
2022-08-08T01:39:23.421Z,18.39
2022-08-08T01:41:59.874Z,18.42
2022-08-08T01:45:00.922Z,18.46
2022-08-08T01:48:15.046Z,18.47
2022-08-08T01:50:58.237Z,18.35
2022-08-08T01:54:33.245Z,18.31
2022-08-08T01:56:42.379Z,18.27
2022-08-08T01:59:38.061Z,18.19
2022-08-08T02:02:41.352Z,18.09
2022-08-08T02:05:33.922Z,17.92
2022-08-08T02:08:45.683Z,17.73
2022-08-08T02:11:52.875Z,17.62
2022-08-08T02:14:55.240Z,17.45
2022-08-08T02:17:54.219Z,17.40
2022-08-08T02:21:01.104Z,17.44
2022-08-08T02:23:31.786Z,17.46
2022-08-08T02:26:25.387Z,17.51
2022-08-08T02:29:46.681Z,17.40
2022-08-08T02:32:37.803Z,17.37
2022-08-08T02:35:35.791Z,17.34
2022-08-08T02:38:35.087Z,17.30
2022-08-08T02:41:58.942Z,17.30
2022-08-08T02:44:56.195Z,17.26
2022-08-08T02:48:01.942Z,17.22
2022-08-08T02:50:55.550Z,17.16
2022-08-08T02:53:53.413Z,17.11
2022-08-08T02:56:23.315Z,17.05
2022-08-08T02:59:57.181Z,16.95
2022-08-08T03:02:53.224Z,16.91
2022-08-08T03:05:58.892Z,16.96
2022-08-08T03:08:44.456Z,16.89
2022-08-08T03:11:47.716Z,16.85
2022-08-08T03:15:58.222Z,16.80
2022-08-08T03:17:39.774Z,16.76
2022-08-08T03:20:08.259Z,16.72
2022-08-08T03:22:56.969Z,16.62
2022-08-08T03:25:35.961Z,16.63
2022-08-08T03:28:07.505Z,16.58
2022-08-08T03:30:34.631Z,16.54
2022-08-08T03:33:55.109Z,16.49
2022-08-08T03:36:10.545Z,16.61
2022-08-08T03:38:56.240Z,16.59
2022-08-08T03:42:28.067Z,16.62
2022-08-08T03:44:25.560Z,16.53
2022-08-08T03:46:55.410Z,16.56
2022-08-08T03:49:59.010Z,16.74
2022-08-08T03:52:14.158Z,16.71
2022-08-08T03:55:01.779Z,16.73
2022-08-08T03:58:30.720Z,16.63
2022-08-08T04:00:19.616Z,16.69
2022-08-08T04:03:02.087Z,16.75
2022-08-08T04:05:39.959Z,16.65
2022-08-08T04:08:33.241Z,16.68
2022-08-08T04:11:11.056Z,16.53
2022-08-08T04:14:02.645Z,16.32
2022-08-08T04:16:40.071Z,16.41
2022-08-08T04:19:25.141Z,16.46
2022-08-08T04:21:54.373Z,16.33
2022-08-08T04:24:28.629Z,16.33
2022-08-08T04:26:57.509Z,16.43
2022-08-08T04:29:27.287Z,16.36
2022-08-08T04:31:58.876Z,16.43
2022-08-08T04:34:31.982Z,16.37
2022-08-08T04:37:10.669Z,16.40
2022-08-08T04:40:03.378Z,16.23
2022-08-08T04:42:27.066Z,16.20
2022-08-08T04:44:59.532Z,16.38
2022-08-08T04:47:27.345Z,16.35
2022-08-08T04:49:58.977Z,16.28
2022-08-08T04:52:33.801Z,16.30
2022-08-08T04:55:04.272Z,16.24
2022-08-08T04:57:34.439Z,16.24
2022-08-08T05:00:02.120Z,16.24
2022-08-08T05:02:30.934Z,16.19
2022-08-08T05:04:59.928Z,16.15
2022-08-08T05:07:37.687Z,16.19
2022-08-08T05:25:07.741Z,16.28
2022-08-08T05:27:41.309Z,16.31
2022-08-08T05:30:10.982Z,16.39
2022-08-08T05:32:39.354Z,16.33
2022-08-08T05:35:07.343Z,16.53
2022-08-08T05:37:53.051Z,16.60
2022-08-08T05:40:28.650Z,16.60
2022-08-08T05:43:38.628Z,16.83
2022-08-08T05:46:01.970Z,16.87
2022-08-08T05:48:32.968Z,17.05
2022-08-08T05:51:14.418Z,17.03
2022-08-08T05:56:42.522Z,16.84
2022-08-08T06:00:01.283Z,17.17
2022-08-08T06:02:39.094Z,17.17
2022-08-08T06:05:34.815Z,17.41
2022-08-08T06:08:02.181Z,17.63
2022-08-08T06:10:33.591Z,17.61
2022-08-08T06:13:01.849Z,17.74
2022-08-08T06:15:50.230Z,17.76
2022-08-08T06:18:21.967Z,17.94
2022-08-08T06:20:56.301Z,18.10
2022-08-08T06:23:29.172Z,18.14
2022-08-08T06:26:38.749Z,18.18
2022-08-08T06:29:18.681Z,18.34
2022-08-08T06:32:09.803Z,18.35
2022-08-08T06:34:40.240Z,18.14
2022-08-08T06:37:24.770Z,18.19
2022-08-08T06:39:56.960Z,18.33
2022-08-08T06:42:24.240Z,18.53
2022-08-08T06:44:53.383Z,18.53
2022-08-08T06:47:22.367Z,18.51
2022-08-08T06:49:56.735Z,18.56
2022-08-08T06:52:23.976Z,18.75
2022-08-08T06:54:58.696Z,18.99
2022-08-08T06:57:29.344Z,19.02
2022-08-08T07:00:12.838Z,19.12
2022-08-08T07:02:45.313Z,19.46
2022-08-08T07:05:24.853Z,19.89
2022-08-08T07:08:05.605Z,20.30
2022-08-08T07:10:47.625Z,20.67
2022-08-08T07:13:25.179Z,21.09
2022-08-08T07:16:10.235Z,21.57
2022-08-08T07:19:16.374Z,22.05
2022-08-08T07:22:00.531Z,22.34
2022-08-08T07:24:50.003Z,22.50
2022-08-08T07:27:35.078Z,22.74
2022-08-08T07:30:14.837Z,22.06
2022-08-08T07:32:43.842Z,22.13
2022-08-08T07:35:11.269Z,22.47
2022-08-08T07:37:56.129Z,22.71
2022-08-08T07:40:32.236Z,23.01
2022-08-08T07:43:04.219Z,23.40
2022-08-08T07:46:05.947Z,23.64
2022-08-08T07:48:29.979Z,24.21
2022-08-08T07:51:00.880Z,24.26
2022-08-08T07:54:01.459Z,24.65
2022-08-08T07:56:37.334Z,25.03
2022-08-08T07:59:15.772Z,24.90
2022-08-08T08:02:34.281Z,25.28
2022-08-08T08:04:49.422Z,25.58
2022-08-08T08:07:26.055Z,25.84
2022-08-08T08:10:03.714Z,26.16
2022-08-08T08:12:35.718Z,26.47
2022-08-08T08:15:11.965Z,25.34
2022-08-08T08:17:55.455Z,25.70
2022-08-08T08:20:29.785Z,26.17
2022-08-08T08:22:57.704Z,26.35
2022-08-08T08:25:43.720Z,27.03
2022-08-08T08:28:21.078Z,27.33
2022-08-08T08:30:50.114Z,27.65
2022-08-08T08:33:16.819Z,27.74
2022-08-08T08:36:19.379Z,27.83
2022-08-08T08:38:33.328Z,27.86
2022-08-08T08:41:01.314Z,27.75
2022-08-08T08:43:34.654Z,28.16
2022-08-08T08:46:03.329Z,28.61
2022-08-08T08:48:31.334Z,28.93
2022-08-08T08:51:01.405Z,28.89
2022-08-08T08:53:59.755Z,29.11
2022-08-08T08:56:25.271Z,29.42
2022-08-08T08:58:56.818Z,29.57
2022-08-08T09:01:28.476Z,29.61
2022-08-08T09:04:01.262Z,29.94
2022-08-08T09:06:34.354Z,30.09
2022-08-08T09:09:18.734Z,29.63
2022-08-08T09:12:02.288Z,29.80
2022-08-08T09:14:35.658Z,30.19
2022-08-08T09:17:15.732Z,29.99
2022-08-08T09:21:57.488Z,30.72
2022-08-08T09:22:35.249Z,31.54
2022-08-08T09:25:04.810Z,31.87
2022-08-08T09:27:55.743Z,32.37
2022-08-08T09:30:23.013Z,32.81
2022-08-08T09:33:12.858Z,33.28
2022-08-08T09:35:49.171Z,33.79
2022-08-08T09:38:53.211Z,32.97
2022-08-08T09:42:14.582Z,31.04
2022-08-08T09:44:46.878Z,32.37
2022-08-08T09:47:25.831Z,33.22
2022-08-08T09:50:21.252Z,33.31
2022-08-08T09:52:59.091Z,34.04
2022-08-08T09:56:05.108Z,34.61
2022-08-08T09:58:27.701Z,35.19
2022-08-08T10:01:14.558Z,35.52
2022-08-08T10:03:58.189Z,35.67
2022-08-08T10:06:30.221Z,35.68
2022-08-08T10:09:00.142Z,35.68
2022-08-08T10:12:25.949Z,35.22
2022-08-08T10:14:30.956Z,35.84
2022-08-08T10:17:57.378Z,34.69
2022-08-08T10:20:00.743Z,34.79
2022-08-08T10:22:32.342Z,34.94
2022-08-08T10:25:05.332Z,35.85
2022-08-08T10:27:42.112Z,36.40
2022-08-08T10:30:16.230Z,36.94
2022-08-08T10:33:00.338Z,36.85
2022-08-08T10:36:19.912Z,37.41
2022-08-08T10:38:19.690Z,37.64
2022-08-08T10:40:51.824Z,37.57
2022-08-08T10:43:20.008Z,37.75
2022-08-08T10:45:56.194Z,37.95
2022-08-08T10:48:58.480Z,38.07
2022-08-08T10:51:24.183Z,38.52
2022-08-08T10:53:57.103Z,38.19
2022-08-08T10:56:27.161Z,38.30
2022-08-08T10:59:08.225Z,38.75
2022-08-08T11:01:37.653Z,38.99
2022-08-08T11:04:10.524Z,38.92
2022-08-08T11:06:41.737Z,38.87
2022-08-08T11:09:19.386Z,38.80
2022-08-08T11:12:06.024Z,38.76
2022-08-08T11:14:34.799Z,38.66
2022-08-08T11:17:03.145Z,39.31
2022-08-08T11:19:34.256Z,37.84
2022-08-08T11:22:04.200Z,37.99
2022-08-08T11:24:35.831Z,38.45
2022-08-08T11:27:10.759Z,38.90
2022-08-08T11:30:04.125Z,39.41
2022-08-08T11:32:42.954Z,39.63
2022-08-08T11:35:27.337Z,39.87
2022-08-08T11:38:39.130Z,40.16
2022-08-08T11:40:52.699Z,40.54
2022-08-08T11:43:21.562Z,39.81
2022-08-08T11:46:09.753Z,40.12
2022-08-08T11:48:38.688Z,40.69
2022-08-08T11:51:29.470Z,40.17
2022-08-08T11:53:59.203Z,39.09
2022-08-08T11:56:34.534Z,39.23
2022-08-08T11:59:09.989Z,39.44
2022-08-08T12:01:37.324Z,39.75
2022-08-08T12:04:06.960Z,40.11
2022-08-08T12:06:34.067Z,40.35
2022-08-08T12:09:17.304Z,40.47
2022-08-08T12:11:49.562Z,40.85
2022-08-08T12:14:23.701Z,41.16
2022-08-08T12:16:53.336Z,41.10
2022-08-08T12:19:31.148Z,41.31
2022-08-08T12:22:08.856Z,41.75
2022-08-08T12:24:54.309Z,42.16
2022-08-08T12:27:26.659Z,42.15
2022-08-08T12:30:00.064Z,42.12
2022-08-08T12:32:34.552Z,41.95
2022-08-08T12:35:13.591Z,41.99
2022-08-08T12:37:48.182Z,41.86
2022-08-08T12:40:56.022Z,42.04
2022-08-08T12:43:46.192Z,41.94
2022-08-08T12:46:25.393Z,41.45
2022-08-08T12:51:58.432Z,41.88
2022-08-08T12:54:33.338Z,42.21
2022-08-08T12:57:17.527Z,41.95
2022-08-08T13:00:05.418Z,41.29
2022-08-08T13:02:42.041Z,41.30
2022-08-08T13:05:26.928Z,40.06
2022-08-08T13:08:20.743Z,40.63
2022-08-08T13:10:56.155Z,41.18
2022-08-08T13:13:35.128Z,41.45
2022-08-08T13:16:25.670Z,41.33
2022-08-08T13:19:00.622Z,41.18
2022-08-08T13:21:53.832Z,41.09
2022-08-08T13:24:42.228Z,41.22
2022-08-08T13:27:17.088Z,40.94
2022-08-08T13:29:54.397Z,41.23
2022-08-08T13:32:23.828Z,41.58
2022-08-08T13:34:56.419Z,42.01
2022-08-08T13:37:28.045Z,42.12
2022-08-08T13:40:18.137Z,41.81
2022-08-08T13:42:55.619Z,41.40
2022-08-08T13:45:24.378Z,41.44
2022-08-08T13:48:03.026Z,40.94
2022-08-08T13:50:43.175Z,40.59
2022-08-08T13:53:31.434Z,40.04
2022-08-08T13:56:05.410Z,40.01
2022-08-08T13:58:33.233Z,40.08
2022-08-08T14:01:32.959Z,39.50
2022-08-08T14:04:23.133Z,39.07
2022-08-08T14:06:59.267Z,38.33
2022-08-08T14:10:05.254Z,37.98
2022-08-08T14:12:30.720Z,37.46
2022-08-08T14:14:59.462Z,37.65
2022-08-08T14:17:58.105Z,37.70
2022-08-08T14:20:15.809Z,38.13
2022-08-08T14:23:30.069Z,39.06
2022-08-08T14:26:10.429Z,39.31
2022-08-08T14:28:39.740Z,39.71
2022-08-08T14:31:11.518Z,39.94
2022-08-08T14:33:57.967Z,40.32
2022-08-08T14:36:36.309Z,40.28
2022-08-08T14:39:11.757Z,40.10
2022-08-08T14:41:54.002Z,39.70
2022-08-08T14:44:33.651Z,38.40
2022-08-08T14:47:02.694Z,38.32
2022-08-08T14:50:06.759Z,39.11
2022-08-08T14:53:04.257Z,39.28
2022-08-08T14:55:42.087Z,38.59
2022-08-08T14:58:11.654Z,38.59
2022-08-08T15:00:43.390Z,38.84
2022-08-08T15:03:15.706Z,39.45
2022-08-08T15:05:54.318Z,39.82
2022-08-08T15:08:35.366Z,40.05
2022-08-08T15:11:09.064Z,39.90
2022-08-08T15:13:40.912Z,40.18
2022-08-08T15:16:23.201Z,40.08
2022-08-08T15:18:53.347Z,40.10
2022-08-08T15:21:22.693Z,39.88
2022-08-08T15:23:54.454Z,39.73
2022-08-08T15:26:25.587Z,39.63
2022-08-08T15:28:54.151Z,39.50
2022-08-08T15:31:41.537Z,39.34
2022-08-08T15:34:28.888Z,39.42
2022-08-08T15:36:58.071Z,39.39
2022-08-08T15:39:25.818Z,38.89
2022-08-08T15:41:55.530Z,38.85
2022-08-08T15:44:25.246Z,38.62
2022-08-08T15:46:54.947Z,38.22
2022-08-08T15:49:24.425Z,38.20
2022-08-08T15:51:54.916Z,37.62
2022-08-08T15:54:38.896Z,37.53
2022-08-08T15:57:09.228Z,37.73
2022-08-08T16:00:05.177Z,37.71
2022-08-08T16:02:28.858Z,37.27
2022-08-08T16:04:59.101Z,36.96
2022-08-08T16:07:39.463Z,36.76
2022-08-08T16:13:14.106Z,37.07
2022-08-08T16:13:27.675Z,37.29
2022-08-08T16:15:57.630Z,37.21
2022-08-08T16:18:27.660Z,37.22
2022-08-08T16:21:00.576Z,37.08
2022-08-08T16:23:31.893Z,36.61
2022-08-08T16:26:05.064Z,36.49
2022-08-08T16:28:41.359Z,36.32
2022-08-08T16:31:09.249Z,36.26
2022-08-08T16:33:39.176Z,35.78
2022-08-08T16:36:09.649Z,35.77
2022-08-08T16:38:40.440Z,35.86
2022-08-08T16:41:20.148Z,35.75
2022-08-08T16:43:51.232Z,35.41
2022-08-08T16:46:36.595Z,34.77
2022-08-08T16:49:08.057Z,34.45
2022-08-08T16:55:03.232Z,33.97
2022-08-08T16:55:04.693Z,34.24
2022-08-08T16:58:12.830Z,33.95
2022-08-08T17:00:09.298Z,34.11
2022-08-08T17:02:44.534Z,34.16
2022-08-08T17:05:12.883Z,34.15
2022-08-08T17:07:40.913Z,33.91
2022-08-08T17:10:09.722Z,33.79
2022-08-08T17:12:37.264Z,33.79
2022-08-08T17:15:17.933Z,33.87
2022-08-08T17:18:03.088Z,33.55
2022-08-08T17:20:39.570Z,33.57
2022-08-08T17:23:18.464Z,33.50
2022-08-08T17:25:54.161Z,33.64
2022-08-08T17:28:34.227Z,33.66
2022-08-08T17:31:15.087Z,33.45
2022-08-08T17:34:53.451Z,33.57
2022-08-08T17:36:55.151Z,33.50
2022-08-08T17:40:03.748Z,33.14
2022-08-08T17:42:19.548Z,32.93
2022-08-08T17:44:49.659Z,32.67
2022-08-08T17:47:23.774Z,32.34
2022-08-08T17:49:52.601Z,32.19
2022-08-08T17:52:23.171Z,32.29
2022-08-08T17:54:55.858Z,32.21
2022-08-08T17:57:28.848Z,32.08
2022-08-08T18:00:02.415Z,31.88
2022-08-08T18:02:30.043Z,31.56
2022-08-08T18:04:58.781Z,31.50
2022-08-08T18:08:04.011Z,31.17
2022-08-08T18:10:16.715Z,31.15
2022-08-08T18:12:45.937Z,30.90
2022-08-08T18:15:13.582Z,30.81
2022-08-08T18:18:09.061Z,30.69
2022-08-08T18:20:43.132Z,30.45
2022-08-08T18:23:15.294Z,30.34
2022-08-08T18:25:43.108Z,30.19
2022-08-08T18:28:13.731Z,30.05
2022-08-08T18:30:41.534Z,29.89
2022-08-08T18:33:20.291Z,29.79
2022-08-08T18:36:02.999Z,29.64
2022-08-08T18:38:30.057Z,29.52
2022-08-08T18:40:56.613Z,29.45
2022-08-08T18:43:43.215Z,29.33
2022-08-08T18:46:56.351Z,29.23
2022-08-08T18:48:57.891Z,29.12
2022-08-08T18:51:52.743Z,29.06
2022-08-08T18:54:22.410Z,28.94
2022-08-08T18:56:51.351Z,28.82
2022-08-08T18:59:17.916Z,28.71
2022-08-08T19:02:26.846Z,28.59
2022-08-08T19:04:32.297Z,28.49
2022-08-08T19:07:02.961Z,28.39
2022-08-08T19:09:48.931Z,28.26
2022-08-08T19:12:17.565Z,28.21
2022-08-08T19:14:46.745Z,28.11
2022-08-08T19:17:29.261Z,28.01
2022-08-08T19:20:02.524Z,27.93
2022-08-08T19:22:30.011Z,27.84
2022-08-08T19:26:01.610Z,27.75
2022-08-08T19:27:56.847Z,27.67
2022-08-08T19:30:27.084Z,27.58
2022-08-08T19:33:00.619Z,27.51
2022-08-08T19:35:45.206Z,27.45
2022-08-08T19:38:16.454Z,27.35
2022-08-08T19:40:44.138Z,27.22
2022-08-08T19:43:12.024Z,26.96
2022-08-08T19:45:57.291Z,26.93
2022-08-08T19:48:30.840Z,26.86
2022-08-08T19:51:01.502Z,26.64
2022-08-08T19:53:53.223Z,26.50
2022-08-08T19:56:25.923Z,26.41
2022-08-08T19:59:08.072Z,26.29
2022-08-08T20:02:01.365Z,26.19
2022-08-08T20:04:22.422Z,26.17
2022-08-08T20:06:50.869Z,26.13
2022-08-08T20:09:22.643Z,26.13
2022-08-08T20:11:50.665Z,26.08
2022-08-08T20:14:34.755Z,26.08
2022-08-08T20:17:04.294Z,26.05
2022-08-08T20:19:34.334Z,26.03
2022-08-08T20:22:13.352Z,26.00
2022-08-08T20:24:47.985Z,25.90
2022-08-08T20:27:20.511Z,25.83
2022-08-08T20:29:55.642Z,25.81
2022-08-08T20:32:31.796Z,25.75
2022-08-08T20:35:02.521Z,25.57
2022-08-08T20:37:46.775Z,25.54
2022-08-08T20:40:17.619Z,25.35
2022-08-08T20:43:00.602Z,25.37
2022-08-08T20:45:55.218Z,25.32
2022-08-08T20:48:15.823Z,25.39
2022-08-08T20:50:47.748Z,25.16
2022-08-08T20:53:16.670Z,25.15
2022-08-08T20:56:01.368Z,25.10
2022-08-08T20:58:28.294Z,25.16
2022-08-08T21:00:57.336Z,25.01
2022-08-08T21:03:23.920Z,25.00
2022-08-08T21:05:58.993Z,24.87
2022-08-08T21:08:36.913Z,24.94
2022-08-08T21:11:13.363Z,24.99
2022-08-08T21:13:41.154Z,24.82
2022-08-08T21:16:18.134Z,24.89
2022-08-08T21:18:57.267Z,24.79
2022-08-08T21:21:41.387Z,24.68
2022-08-08T21:24:24.068Z,24.52
2022-08-08T21:26:56.650Z,24.59
2022-08-08T21:30:05.432Z,24.52
2022-08-08T21:32:14.372Z,24.45
2022-08-08T21:34:49.579Z,24.41
2022-08-08T21:37:18.966Z,24.15
2022-08-08T21:39:56.461Z,24.10
2022-08-08T21:42:23.953Z,24.16
2022-08-08T21:44:58.833Z,24.12
2022-08-08T21:48:07.163Z,24.24
2022-08-08T21:50:14.321Z,24.19
2022-08-08T21:54:22.983Z,24.13
2022-08-08T21:56:20.160Z,23.99
2022-08-08T21:58:14.894Z,23.91
2022-08-08T22:00:44.050Z,23.94
2022-08-08T22:03:11.166Z,23.95
2022-08-08T22:05:42.185Z,23.69
2022-08-08T22:08:09.385Z,23.86
2022-08-08T22:10:37.732Z,23.82
2022-08-08T22:13:18.817Z,23.80
2022-08-08T22:15:58.604Z,23.75
2022-08-08T22:18:27.580Z,23.73
2022-08-08T22:20:55.792Z,23.60
2022-08-08T22:23:25.303Z,23.56
2022-08-08T22:26:27.192Z,23.53
2022-08-08T22:29:04.576Z,23.36
2022-08-08T22:31:29.703Z,23.33
2022-08-08T22:34:13.841Z,23.12
2022-08-08T22:36:42.938Z,23.08
2022-08-08T22:39:18.918Z,22.91
2022-08-08T22:41:46.128Z,22.83
2022-08-08T22:44:15.894Z,22.74
2022-08-08T22:46:42.737Z,22.53
2022-08-08T22:49:12.471Z,22.39
2022-08-08T22:51:46.692Z,22.44
2022-08-08T22:54:30.676Z,22.41
2022-08-08T22:57:01.158Z,22.29
2022-08-08T22:59:36.348Z,22.16
2022-08-08T23:02:14.428Z,22.03
2022-08-08T23:04:58.541Z,22.03
2022-08-08T23:07:51.370Z,21.81
2022-08-08T23:10:21.286Z,21.79
2022-08-08T23:12:51.706Z,21.79
2022-08-08T23:16:37.815Z,21.77
2022-08-08T23:18:11.789Z,21.72
2022-08-08T23:20:39.342Z,21.68
2022-08-08T23:23:05.910Z,21.51
2022-08-08T23:25:45.067Z,21.59
2022-08-08T23:28:14.322Z,21.43
2022-08-08T23:30:41.947Z,21.33
2022-08-08T23:33:19.063Z,21.37
2022-08-08T23:36:06.683Z,21.30
2022-08-08T23:38:34.315Z,21.22
2022-08-08T23:41:00.869Z,21.20
2022-08-08T23:43:31.599Z,21.04
2022-08-08T23:49:07.122Z,21.04
2022-08-08T23:49:18.170Z,20.88
2022-08-08T23:52:05.840Z,20.95
2022-08-08T23:54:41.696Z,20.77
2022-08-08T23:57:26.887Z,20.81
